Etusivu
METAR-TAF:

METAR-TAF

Lentoasemat :

Halmstad, Ruotsi

Leveyspiiri: 56-41N, Pituuspiiri: 012-50E, korkeus merenpinnasta: 30 m

Tämänhetkinen sää

Tämä raportti tehtiin 23 minuuttia sitten, kello 23.20 UTC
Tuuli 8 kn idästä/koillisesta, vaihdellen koillisen ja idän/kaakon välillä
Lämpötila 3°C
Kosteus 81%
Ilmanpaine 1028 hPa
Näkyvyys 10 km tai enemmän

METAR: ESMT 202320Z AUTO 07008KT 050V110 9999 SCT020/// 03/M00 Q1028

Aika: 00:43 (23:43 UTC)

Sääennuste

Tämä raportti tehtiin 3 tuntia ja 38 minuuttia sitten, kello 20.05 UTC
Ennuste voimassa 20. päivästä klo 21 UTC - 20. päivään klo 23 UTC
Tuuli 12 kn idästä
Näkyvyys 10 km tai enemmän
Hajanaisia pilviä 2000 ft:n korkeudessa

TAF: ESMT 202005Z 2021/2023 08012KT 9999 SCT020

Säähavainnot ja -ennusteet yli 4000 lentoasemalta (METAR- ja TAF-raportit).

Käytössä olevat sääasemat on merkitty karttaan keltaisilla ja punaisilla pisteillä.

Aseta hiiri pisteen päälle nähdäksesi sääaseman nimen.

Klikkaa sitten nähdäksesi säähavainnot ja -ennusteet.

Kartan vaihtaminen: klikkaa mustalla rastilla varustettuja vihreitä pisteitä, niin voit zoomata sisään; viivalla varustettua vihreää pistettä, niin voit zoomata ulos tai vihreitä nuolia, niin pääset viereisille kartoille.


METAR-TAF: